sensor_id;sensor_type;location;lat;lon;timestamp;temperature;humidity
11577;DHT22;5844;51.496;6.788;2023-03-31T00:01:32;11.50;99.90
11577;DHT22;5844;51.496;6.788;2023-03-31T00:03:59;11.50;99.90
11577;DHT22;5844;51.496;6.788;2023-03-31T00:06:35;11.50;99.90
11577;DHT22;5844;51.496;6.788;2023-03-31T00:09:11;11.50;99.90
11577;DHT22;5844;51.496;6.788;2023-03-31T00:11:37;11.40;99.90
11577;DHT22;5844;51.496;6.788;2023-03-31T00:14:04;11.40;99.90
11577;DHT22;5844;51.496;6.788;2023-03-31T00:16:32;11.40;99.90
11577;DHT22;5844;51.496;6.788;2023-03-31T00:18:58;11.50;99.90
11577;DHT22;5844;51.496;6.788;2023-03-31T00:21:27;11.40;99.90
11577;DHT22;5844;51.496;6.788;2023-03-31T00:23:55;11.30;99.90
11577;DHT22;5844;51.496;6.788;2023-03-31T00:26:20;11.30;99.90
11577;DHT22;5844;51.496;6.788;2023-03-31T00:28:48;11.30;99.90
11577;DHT22;5844;51.496;6.788;2023-03-31T00:31:14;11.30;99.90
11577;DHT22;5844;51.496;6.788;2023-03-31T00:33:39;11.40;99.90
11577;DHT22;5844;51.496;6.788;2023-03-31T00:36:05;11.50;99.90
11577;DHT22;5844;51.496;6.788;2023-03-31T00:38:32;11.50;99.90
11577;DHT22;5844;51.496;6.788;2023-03-31T00:40:58;11.60;99.90
11577;DHT22;5844;51.496;6.788;2023-03-31T00:43:33;11.60;99.90
11577;DHT22;5844;51.496;6.788;2023-03-31T00:46:06;11.60;99.90
11577;DHT22;5844;51.496;6.788;2023-03-31T00:48:52;11.60;99.90
11577;DHT22;5844;51.496;6.788;2023-03-31T00:51:20;11.60;99.90
11577;DHT22;5844;51.496;6.788;2023-03-31T00:53:53;11.60;99.90
11577;DHT22;5844;51.496;6.788;2023-03-31T00:56:22;11.60;99.90
11577;DHT22;5844;51.496;6.788;2023-03-31T00:58:49;11.50;99.90
11577;DHT22;5844;51.496;6.788;2023-03-31T01:01:20;11.40;99.90
11577;DHT22;5844;51.496;6.788;2023-03-31T01:03:49;11.20;99.90
11577;DHT22;5844;51.496;6.788;2023-03-31T01:06:16;11.10;99.90
11577;DHT22;5844;51.496;6.788;2023-03-31T01:08:45;11.00;99.90
11577;DHT22;5844;51.496;6.788;2023-03-31T01:11:14;11.00;99.90
11577;DHT22;5844;51.496;6.788;2023-03-31T01:13:41;10.90;99.90
11577;DHT22;5844;51.496;6.788;2023-03-31T01:16:08;10.80;99.90
11577;DHT22;5844;51.496;6.788;2023-03-31T01:18:34;10.80;99.90
11577;DHT22;5844;51.496;6.788;2023-03-31T01:32:23;10.60;99.90
11577;DHT22;5844;51.496;6.788;2023-03-31T01:46:31;10.50;99.90
11577;DHT22;5844;51.496;6.788;2023-03-31T01:49:21;10.50;99.90
11577;DHT22;5844;51.496;6.788;2023-03-31T01:52:03;10.50;99.90
11577;DHT22;5844;51.496;6.788;2023-03-31T01:57:35;10.40;99.90
11577;DHT22;5844;51.496;6.788;2023-03-31T02:02:53;10.50;99.90
11577;DHT22;5844;51.496;6.788;2023-03-31T02:05:24;10.50;99.90
11577;DHT22;5844;51.496;6.788;2023-03-31T02:08:27;10.50;99.90
11577;DHT22;5844;51.496;6.788;2023-03-31T02:10:54;10.50;99.90
11577;DHT22;5844;51.496;6.788;2023-03-31T02:13:21;10.50;99.90
11577;DHT22;5844;51.496;6.788;2023-03-31T02:15:51;10.50;99.90
11577;DHT22;5844;51.496;6.788;2023-03-31T02:18:20;10.60;99.90
11577;DHT22;5844;51.496;6.788;2023-03-31T02:20:52;10.50;99.90
11577;DHT22;5844;51.496;6.788;2023-03-31T02:23:23;10.60;99.90
11577;DHT22;5844;51.496;6.788;2023-03-31T02:28:37;10.50;99.90
11577;DHT22;5844;51.496;6.788;2023-03-31T02:34:00;10.50;99.90
11577;DHT22;5844;51.496;6.788;2023-03-31T02:36:26;10.50;99.90
11577;DHT22;5844;51.496;6.788;2023-03-31T02:38:59;10.50;99.90
11577;DHT22;5844;51.496;6.788;2023-03-31T02:41:26;10.50;99.90
11577;DHT22;5844;51.496;6.788;2023-03-31T02:43:52;10.50;99.90
11577;DHT22;5844;51.496;6.788;2023-03-31T02:46:18;10.50;99.90
11577;DHT22;5844;51.496;6.788;2023-03-31T02:48:49;10.70;99.90
11577;DHT22;5844;51.496;6.788;2023-03-31T02:51:37;10.50;99.90
11577;DHT22;5844;51.496;6.788;2023-03-31T02:54:19;10.50;99.90
11577;DHT22;5844;51.496;6.788;2023-03-31T03:05:18;10.60;99.90
11577;DHT22;5844;51.496;6.788;2023-03-31T03:10:35;10.60;99.90
11577;DHT22;5844;51.496;6.788;2023-03-31T03:16:10;10.70;99.90
11577;DHT22;5844;51.496;6.788;2023-03-31T03:18:44;10.70;99.90
11577;DHT22;5844;51.496;6.788;2023-03-31T03:21:09;10.70;99.90
11577;DHT22;5844;51.496;6.788;2023-03-31T03:23:35;10.80;99.90
11577;DHT22;5844;51.496;6.788;2023-03-31T03:26:01;10.70;99.90
11577;DHT22;5844;51.496;6.788;2023-03-31T03:28:27;10.70;99.90
11577;DHT22;5844;51.496;6.788;2023-03-31T03:30:52;10.70;99.90
11577;DHT22;5844;51.496;6.788;2023-03-31T03:33:18;10.70;99.90
11577;DHT22;5844;51.496;6.788;2023-03-31T03:35:43;10.70;99.90
11577;DHT22;5844;51.496;6.788;2023-03-31T03:38:09;10.70;99.90
11577;DHT22;5844;51.496;6.788;2023-03-31T03:40:35;10.70;99.90
11577;DHT22;5844;51.496;6.788;2023-03-31T03:43:00;10.70;99.90
11577;DHT22;5844;51.496;6.788;2023-03-31T03:45:26;10.70;99.90
11577;DHT22;5844;51.496;6.788;2023-03-31T03:47:51;10.70;99.90
11577;DHT22;5844;51.496;6.788;2023-03-31T03:50:17;10.70;99.90
11577;DHT22;5844;51.496;6.788;2023-03-31T03:52:43;10.70;99.90
11577;DHT22;5844;51.496;6.788;2023-03-31T03:55:09;10.70;99.90
11577;DHT22;5844;51.496;6.788;2023-03-31T03:57:36;10.70;99.90
11577;DHT22;5844;51.496;6.788;2023-03-31T04:00:02;10.70;99.90
11577;DHT22;5844;51.496;6.788;2023-03-31T04:02:32;10.70;99.90
11577;DHT22;5844;51.496;6.788;2023-03-31T04:04:58;10.70;99.90
11577;DHT22;5844;51.496;6.788;2023-03-31T04:07:23;10.70;99.90
11577;DHT22;5844;51.496;6.788;2023-03-31T04:09:49;10.60;99.90
11577;DHT22;5844;51.496;6.788;2023-03-31T04:12:15;10.60;99.90
11577;DHT22;5844;51.496;6.788;2023-03-31T04:14:40;10.60;99.90
11577;DHT22;5844;51.496;6.788;2023-03-31T04:17:06;10.60;99.90
11577;DHT22;5844;51.496;6.788;2023-03-31T04:19:31;10.60;99.90
11577;DHT22;5844;51.496;6.788;2023-03-31T04:21:57;10.60;99.90
11577;DHT22;5844;51.496;6.788;2023-03-31T04:24:27;10.70;99.90
11577;DHT22;5844;51.496;6.788;2023-03-31T04:26:58;10.50;99.90
11577;DHT22;5844;51.496;6.788;2023-03-31T04:29:24;10.60;99.90
11577;DHT22;5844;51.496;6.788;2023-03-31T04:31:54;10.60;99.90
11577;DHT22;5844;51.496;6.788;2023-03-31T04:34:23;10.60;99.90
11577;DHT22;5844;51.496;6.788;2023-03-31T04:36:51;10.60;99.90
11577;DHT22;5844;51.496;6.788;2023-03-31T04:39:20;10.50;99.90
11577;DHT22;5844;51.496;6.788;2023-03-31T04:41:52;10.50;99.90
11577;DHT22;5844;51.496;6.788;2023-03-31T04:44:18;10.50;99.90
11577;DHT22;5844;51.496;6.788;2023-03-31T04:46:43;10.50;99.90
11577;DHT22;5844;51.496;6.788;2023-03-31T04:49:09;10.50;99.90
11577;DHT22;5844;51.496;6.788;2023-03-31T04:51:35;10.60;99.90
11577;DHT22;5844;51.496;6.788;2023-03-31T04:54:00;10.50;99.90
11577;DHT22;5844;51.496;6.788;2023-03-31T04:56:26;10.50;99.90
11577;DHT22;5844;51.496;6.788;2023-03-31T04:58:52;10.50;99.90
11577;DHT22;5844;51.496;6.788;2023-03-31T05:01:17;10.50;99.90
11577;DHT22;5844;51.496;6.788;2023-03-31T05:03:44;10.50;99.90
11577;DHT22;5844;51.496;6.788;2023-03-31T05:06:12;10.50;99.90
11577;DHT22;5844;51.496;6.788;2023-03-31T05:08:39;10.40;99.90
11577;DHT22;5844;51.496;6.788;2023-03-31T05:11:04;10.40;99.90
11577;DHT22;5844;51.496;6.788;2023-03-31T05:13:31;10.30;99.90
11577;DHT22;5844;51.496;6.788;2023-03-31T05:15:56;10.30;99.90
11577;DHT22;5844;51.496;6.788;2023-03-31T05:18:22;10.50;99.90
11577;DHT22;5844;51.496;6.788;2023-03-31T05:20:48;10.20;99.90
11577;DHT22;5844;51.496;6.788;2023-03-31T05:23:14;10.20;99.90
11577;DHT22;5844;51.496;6.788;2023-03-31T05:25:39;10.20;99.90
11577;DHT22;5844;51.496;6.788;2023-03-31T05:28:07;10.10;99.90
11577;DHT22;5844;51.496;6.788;2023-03-31T05:30:34;10.10;99.90
11577;DHT22;5844;51.496;6.788;2023-03-31T05:33:00;10.20;99.90
11577;DHT22;5844;51.496;6.788;2023-03-31T05:35:26;10.20;99.90
11577;DHT22;5844;51.496;6.788;2023-03-31T05:37:52;10.20;99.90
11577;DHT22;5844;51.496;6.788;2023-03-31T05:40:17;10.20;99.90
11577;DHT22;5844;51.496;6.788;2023-03-31T05:42:43;10.30;99.90
11577;DHT22;5844;51.496;6.788;2023-03-31T05:45:09;10.30;99.90
11577;DHT22;5844;51.496;6.788;2023-03-31T05:47:35;10.30;99.90
11577;DHT22;5844;51.496;6.788;2023-03-31T05:50:01;10.30;99.90
11577;DHT22;5844;51.496;6.788;2023-03-31T05:52:28;10.50;99.90
11577;DHT22;5844;51.496;6.788;2023-03-31T05:54:54;10.40;99.90
11577;DHT22;5844;51.496;6.788;2023-03-31T05:57:20;9.90;99.90
11577;DHT22;5844;51.496;6.788;2023-03-31T05:59:45;10.50;99.90
11577;DHT22;5844;51.496;6.788;2023-03-31T06:02:14;10.50;99.90
11577;DHT22;5844;51.496;6.788;2023-03-31T06:04:40;10.50;99.90
11577;DHT22;5844;51.496;6.788;2023-03-31T06:07:06;10.50;99.90
11577;DHT22;5844;51.496;6.788;2023-03-31T06:09:32;10.50;99.90
11577;DHT22;5844;51.496;6.788;2023-03-31T06:11:58;10.60;99.90
11577;DHT22;5844;51.496;6.788;2023-03-31T06:14:24;10.60;99.90
11577;DHT22;5844;51.496;6.788;2023-03-31T06:16:49;10.60;99.90
11577;DHT22;5844;51.496;6.788;2023-03-31T06:19:15;10.60;99.90
11577;DHT22;5844;51.496;6.788;2023-03-31T06:21:41;10.60;99.90
11577;DHT22;5844;51.496;6.788;2023-03-31T06:24:08;10.60;99.90
11577;DHT22;5844;51.496;6.788;2023-03-31T06:26:34;10.50;99.90
11577;DHT22;5844;51.496;6.788;2023-03-31T06:29:00;10.60;99.90
11577;DHT22;5844;51.496;6.788;2023-03-31T06:31:25;10.60;99.90
11577;DHT22;5844;51.496;6.788;2023-03-31T06:33:52;10.60;99.90
11577;DHT22;5844;51.496;6.788;2023-03-31T06:36:19;10.60;99.90
11577;DHT22;5844;51.496;6.788;2023-03-31T06:38:46;10.50;99.90
11577;DHT22;5844;51.496;6.788;2023-03-31T06:41:13;10.50;99.90
11577;DHT22;5844;51.496;6.788;2023-03-31T06:43:40;10.50;99.90
11577;DHT22;5844;51.496;6.788;2023-03-31T06:46:05;10.60;99.90
11577;DHT22;5844;51.496;6.788;2023-03-31T06:48:32;10.50;99.90
11577;DHT22;5844;51.496;6.788;2023-03-31T06:51:02;10.40;99.90
11577;DHT22;5844;51.496;6.788;2023-03-31T06:53:28;10.50;99.90
11577;DHT22;5844;51.496;6.788;2023-03-31T06:55:54;10.50;99.90
11577;DHT22;5844;51.496;6.788;2023-03-31T06:58:20;10.50;99.90
11577;DHT22;5844;51.496;6.788;2023-03-31T07:00:46;10.50;99.90
11577;DHT22;5844;51.496;6.788;2023-03-31T07:03:13;10.60;99.90
11577;DHT22;5844;51.496;6.788;2023-03-31T07:05:38;10.50;99.90
11577;DHT22;5844;51.496;6.788;2023-03-31T07:08:04;10.50;99.90
11577;DHT22;5844;51.496;6.788;2023-03-31T07:10:31;10.40;99.90
11577;DHT22;5844;51.496;6.788;2023-03-31T07:12:57;10.40;99.90
11577;DHT22;5844;51.496;6.788;2023-03-31T07:15:23;10.40;99.90
11577;DHT22;5844;51.496;6.788;2023-03-31T07:17:49;10.40;99.90
11577;DHT22;5844;51.496;6.788;2023-03-31T07:20:19;10.40;99.90
11577;DHT22;5844;51.496;6.788;2023-03-31T07:22:46;10.40;99.90
11577;DHT22;5844;51.496;6.788;2023-03-31T07:25:14;10.40;99.90
11577;DHT22;5844;51.496;6.788;2023-03-31T07:27:41;10.40;99.90
11577;DHT22;5844;51.496;6.788;2023-03-31T07:30:16;10.40;99.90
11577;DHT22;5844;51.496;6.788;2023-03-31T07:32:42;10.40;99.90
11577;DHT22;5844;51.496;6.788;2023-03-31T07:35:09;10.30;99.90
11577;DHT22;5844;51.496;6.788;2023-03-31T07:37:41;10.30;99.90
11577;DHT22;5844;51.496;6.788;2023-03-31T07:40:09;10.30;99.90
11577;DHT22;5844;51.496;6.788;2023-03-31T07:42:35;10.30;99.90
11577;DHT22;5844;51.496;6.788;2023-03-31T07:45:01;10.30;99.90
11577;DHT22;5844;51.496;6.788;2023-03-31T07:47:27;10.30;99.90
11577;DHT22;5844;51.496;6.788;2023-03-31T07:49:53;10.40;99.90
11577;DHT22;5844;51.496;6.788;2023-03-31T07:52:18;10.30;99.90
11577;DHT22;5844;51.496;6.788;2023-03-31T07:54:45;10.30;99.90
11577;DHT22;5844;51.496;6.788;2023-03-31T07:57:11;10.30;99.90
11577;DHT22;5844;51.496;6.788;2023-03-31T07:59:37;10.30;99.90
11577;DHT22;5844;51.496;6.788;2023-03-31T08:02:03;10.30;99.90
11577;DHT22;5844;51.496;6.788;2023-03-31T08:04:28;10.30;99.90
11577;DHT22;5844;51.496;6.788;2023-03-31T08:06:54;10.30;99.90
11577;DHT22;5844;51.496;6.788;2023-03-31T08:09:21;10.30;99.90
11577;DHT22;5844;51.496;6.788;2023-03-31T08:11:47;10.40;99.90
11577;DHT22;5844;51.496;6.788;2023-03-31T08:14:13;10.40;99.90
11577;DHT22;5844;51.496;6.788;2023-03-31T08:16:38;10.40;99.90
11577;DHT22;5844;51.496;6.788;2023-03-31T08:19:04;10.50;99.90
11577;DHT22;5844;51.496;6.788;2023-03-31T08:21:30;10.60;99.90
11577;DHT22;5844;51.496;6.788;2023-03-31T08:23:56;10.70;99.90
11577;DHT22;5844;51.496;6.788;2023-03-31T08:26:22;10.70;99.90
11577;DHT22;5844;51.496;6.788;2023-03-31T08:28:50;10.80;99.90
11577;DHT22;5844;51.496;6.788;2023-03-31T08:31:17;10.90;99.90
11577;DHT22;5844;51.496;6.788;2023-03-31T08:33:43;10.90;99.90
11577;DHT22;5844;51.496;6.788;2023-03-31T08:36:10;11.00;99.90
11577;DHT22;5844;51.496;6.788;2023-03-31T08:38:37;11.00;99.90
11577;DHT22;5844;51.496;6.788;2023-03-31T08:41:05;11.00;99.90
11577;DHT22;5844;51.496;6.788;2023-03-31T08:43:43;11.00;99.90
11577;DHT22;5844;51.496;6.788;2023-03-31T08:46:12;11.00;99.90
11577;DHT22;5844;51.496;6.788;2023-03-31T08:48:44;11.00;99.90
11577;DHT22;5844;51.496;6.788;2023-03-31T08:54:03;11.10;99.90
11577;DHT22;5844;51.496;6.788;2023-03-31T08:56:34;11.20;99.90
11577;DHT22;5844;51.496;6.788;2023-03-31T08:59:03;11.30;99.90
11577;DHT22;5844;51.496;6.788;2023-03-31T09:01:52;11.30;99.90
11577;DHT22;5844;51.496;6.788;2023-03-31T09:04:47;11.40;99.90
11577;DHT22;5844;51.496;6.788;2023-03-31T09:07:43;11.50;99.90
11577;DHT22;5844;51.496;6.788;2023-03-31T09:18:42;11.50;99.90
11577;DHT22;5844;51.496;6.788;2023-03-31T09:21:39;11.50;99.90
11577;DHT22;5844;51.496;6.788;2023-03-31T09:24:20;11.50;99.90
11577;DHT22;5844;51.496;6.788;2023-03-31T09:27:01;11.50;99.90
11577;DHT22;5844;51.496;6.788;2023-03-31T09:29:53;11.50;99.90
11577;DHT22;5844;51.496;6.788;2023-03-31T09:32:24;11.50;99.90
11577;DHT22;5844;51.496;6.788;2023-03-31T09:34:54;11.60;99.90
11577;DHT22;5844;51.496;6.788;2023-03-31T09:37:23;11.70;99.90
11577;DHT22;5844;51.496;6.788;2023-03-31T09:39:49;11.80;99.90
11577;DHT22;5844;51.496;6.788;2023-03-31T09:42:15;11.90;99.90
11577;DHT22;5844;51.496;6.788;2023-03-31T09:44:45;12.00;99.90
11577;DHT22;5844;51.496;6.788;2023-03-31T09:47:33;12.20;99.90
11577;DHT22;5844;51.496;6.788;2023-03-31T09:50:03;12.30;99.90
11577;DHT22;5844;51.496;6.788;2023-03-31T09:52:32;12.50;99.90
11577;DHT22;5844;51.496;6.788;2023-03-31T09:55:34;12.70;99.90
11577;DHT22;5844;51.496;6.788;2023-03-31T09:58:05;12.90;99.90
11577;DHT22;5844;51.496;6.788;2023-03-31T10:00:33;13.30;99.90
11577;DHT22;5844;51.496;6.788;2023-03-31T10:03:03;13.60;99.90
11577;DHT22;5844;51.496;6.788;2023-03-31T10:05:35;13.90;99.90
11577;DHT22;5844;51.496;6.788;2023-03-31T10:10:54;14.00;99.90
11577;DHT22;5844;51.496;6.788;2023-03-31T10:13:29;13.80;99.90
11577;DHT22;5844;51.496;6.788;2023-03-31T10:16:06;13.70;99.90
11577;DHT22;5844;51.496;6.788;2023-03-31T10:18:39;13.30;99.90
11577;DHT22;5844;51.496;6.788;2023-03-31T10:21:09;13.10;99.90
11577;DHT22;5844;51.496;6.788;2023-03-31T10:23:45;13.10;99.90
11577;DHT22;5844;51.496;6.788;2023-03-31T10:26:19;13.10;99.90
11577;DHT22;5844;51.496;6.788;2023-03-31T10:28:47;13.50;99.90
11577;DHT22;5844;51.496;6.788;2023-03-31T10:31:17;13.80;99.90
11577;DHT22;5844;51.496;6.788;2023-03-31T10:33:47;13.90;99.90
11577;DHT22;5844;51.496;6.788;2023-03-31T10:36:20;14.00;99.90
11577;DHT22;5844;51.496;6.788;2023-03-31T10:38:47;14.00;99.90
11577;DHT22;5844;51.496;6.788;2023-03-31T10:41:19;14.10;99.90
11577;DHT22;5844;51.496;6.788;2023-03-31T10:43:51;14.20;99.90
11577;DHT22;5844;51.496;6.788;2023-03-31T10:46:17;14.50;99.90
11577;DHT22;5844;51.496;6.788;2023-03-31T10:48:43;14.80;99.90
11577;DHT22;5844;51.496;6.788;2023-03-31T10:53:48;15.00;99.90
11577;DHT22;5844;51.496;6.788;2023-03-31T11:01:35;14.30;99.90
11577;DHT22;5844;51.496;6.788;2023-03-31T11:10:20;14.10;99.90
11577;DHT22;5844;51.496;6.788;2023-03-31T11:18:16;13.80;99.90
11577;DHT22;5844;51.496;6.788;2023-03-31T11:45:22;14.50;1.00
11577;DHT22;5844;51.496;6.788;2023-03-31T11:47:52;14.50;1.00
11577;DHT22;5844;51.496;6.788;2023-03-31T11:50:26;14.40;1.00
11577;DHT22;5844;51.496;6.788;2023-03-31T11:53:00;14.30;1.00
11577;DHT22;5844;51.496;6.788;2023-03-31T11:55:28;14.40;1.00
11577;DHT22;5844;51.496;6.788;2023-03-31T12:00:29;14.70;1.00
11577;DHT22;5844;51.496;6.788;2023-03-31T12:05:30;14.50;99.90
11577;DHT22;5844;51.496;6.788;2023-03-31T12:08:05;14.60;99.90
11577;DHT22;5844;51.496;6.788;2023-03-31T12:10:38;14.80;1.00
11577;DHT22;5844;51.496;6.788;2023-03-31T12:15:45;15.00;1.00
11577;DHT22;5844;51.496;6.788;2023-03-31T12:18:21;14.80;1.00
11577;DHT22;5844;51.496;6.788;2023-03-31T12:20:55;14.60;1.00
11577;DHT22;5844;51.496;6.788;2023-03-31T12:23:26;14.50;1.00
11577;DHT22;5844;51.496;6.788;2023-03-31T12:29:03;14.60;1.00
11577;DHT22;5844;51.496;6.788;2023-03-31T12:31:31;14.80;99.90
11577;DHT22;5844;51.496;6.788;2023-03-31T12:39:56;14.90;1.00
11577;DHT22;5844;51.496;6.788;2023-03-31T12:42:42;14.80;1.00
11577;DHT22;5844;51.496;6.788;2023-03-31T12:48:14;14.80;99.90
11577;DHT22;5844;51.496;6.788;2023-03-31T12:53:58;15.00;1.00
11577;DHT22;5844;51.496;6.788;2023-03-31T12:56:26;15.20;99.90
11577;DHT22;5844;51.496;6.788;2023-03-31T12:58:52;15.10;99.90
11577;DHT22;5844;51.496;6.788;2023-03-31T13:01:22;15.30;99.90
11577;DHT22;5844;51.496;6.788;2023-03-31T13:11:42;15.80;1.00
11577;DHT22;5844;51.496;6.788;2023-03-31T13:16:46;15.80;1.00
11577;DHT22;5844;51.496;6.788;2023-03-31T13:19:32;15.70;1.00
11577;DHT22;5844;51.496;6.788;2023-03-31T13:22:03;15.50;82.50
11577;DHT22;5844;51.496;6.788;2023-03-31T13:24:30;15.20;99.90
11577;DHT22;5844;51.496;6.788;2023-03-31T13:26:58;15.20;1.00
11577;DHT22;5844;51.496;6.788;2023-03-31T13:29:43;15.10;1.00
11577;DHT22;5844;51.496;6.788;2023-03-31T13:32:21;15.00;1.00
11577;DHT22;5844;51.496;6.788;2023-03-31T13:34:51;15.10;1.00
11577;DHT22;5844;51.496;6.788;2023-03-31T13:45:54;15.70;1.00
11577;DHT22;5844;51.496;6.788;2023-03-31T13:51:12;15.90;1.00
11577;DHT22;5844;51.496;6.788;2023-03-31T14:02:01;16.20;99.90
11577;DHT22;5844;51.496;6.788;2023-03-31T14:09:40;16.20;1.00
11577;DHT22;5844;51.496;6.788;2023-03-31T14:12:31;15.90;1.00
11577;DHT22;5844;51.496;6.788;2023-03-31T14:14:56;16.00;99.90
11577;DHT22;5844;51.496;6.788;2023-03-31T14:17:26;16.00;13.30
11577;DHT22;5844;51.496;6.788;2023-03-31T14:25:15;15.70;1.00
11577;DHT22;5844;51.496;6.788;2023-03-31T14:28:03;15.70;18.00
11577;DHT22;5844;51.496;6.788;2023-03-31T14:30:55;15.60;1.00
11577;DHT22;5844;51.496;6.788;2023-03-31T14:34:10;15.40;99.90
11577;DHT22;5844;51.496;6.788;2023-03-31T14:37:00;15.00;99.90
11577;DHT22;5844;51.496;6.788;2023-03-31T14:39:32;14.90;1.00
11577;DHT22;5844;51.496;6.788;2023-03-31T14:42:03;14.70;1.00
11577;DHT22;5844;51.496;6.788;2023-03-31T14:44:31;13.80;1.00
11577;DHT22;5844;51.496;6.788;2023-03-31T14:46:57;13.20;1.00
11577;DHT22;5844;51.496;6.788;2023-03-31T14:49:34;12.80;1.00
11577;DHT22;5844;51.496;6.788;2023-03-31T14:52:12;12.50;60.40
11577;DHT22;5844;51.496;6.788;2023-03-31T14:54:38;12.40;99.90
11577;DHT22;5844;51.496;6.788;2023-03-31T14:57:05;12.40;99.90
11577;DHT22;5844;51.496;6.788;2023-03-31T14:59:33;12.50;99.90
11577;DHT22;5844;51.496;6.788;2023-03-31T15:02:01;12.60;99.90
11577;DHT22;5844;51.496;6.788;2023-03-31T15:04:30;12.70;99.90
11577;DHT22;5844;51.496;6.788;2023-03-31T15:07:02;12.80;99.90
11577;DHT22;5844;51.496;6.788;2023-03-31T15:09:32;12.90;99.90
11577;DHT22;5844;51.496;6.788;2023-03-31T15:12:03;12.90;99.90
11577;DHT22;5844;51.496;6.788;2023-03-31T15:14:34;12.90;99.90
11577;DHT22;5844;51.496;6.788;2023-03-31T15:17:00;12.80;99.90
11577;DHT22;5844;51.496;6.788;2023-03-31T15:19:34;12.80;99.90
11577;DHT22;5844;51.496;6.788;2023-03-31T15:22:16;12.80;99.90
11577;DHT22;5844;51.496;6.788;2023-03-31T15:24:43;13.00;91.00
11577;DHT22;5844;51.496;6.788;2023-03-31T15:27:30;13.10;1.00
11577;DHT22;5844;51.496;6.788;2023-03-31T15:29:59;13.30;67.90
11577;DHT22;5844;51.496;6.788;2023-03-31T15:32:29;13.30;27.40
11577;DHT22;5844;51.496;6.788;2023-03-31T15:34:57;13.30;1.00
11577;DHT22;5844;51.496;6.788;2023-03-31T15:37:25;13.30;1.00
11577;DHT22;5844;51.496;6.788;2023-03-31T15:39:58;13.40;1.00
11577;DHT22;5844;51.496;6.788;2023-03-31T15:42:26;13.50;1.00
11577;DHT22;5844;51.496;6.788;2023-03-31T15:47:48;13.90;1.00
11577;DHT22;5844;51.496;6.788;2023-03-31T15:50:15;14.10;1.00
11577;DHT22;5844;51.496;6.788;2023-03-31T15:52:54;14.20;1.00
11577;DHT22;5844;51.496;6.788;2023-03-31T15:55:27;14.10;1.00
11577;DHT22;5844;51.496;6.788;2023-03-31T15:57:55;14.10;4.70
11577;DHT22;5844;51.496;6.788;2023-03-31T16:02:57;13.80;91.90
11577;DHT22;5844;51.496;6.788;2023-03-31T16:05:39;13.70;69.20
11577;DHT22;5844;51.496;6.788;2023-03-31T16:08:21;13.70;55.40
11577;DHT22;5844;51.496;6.788;2023-03-31T16:10:55;13.60;31.30
11577;DHT22;5844;51.496;6.788;2023-03-31T16:13:23;13.60;1.00
11577;DHT22;5844;51.496;6.788;2023-03-31T16:15:50;13.60;1.00
11577;DHT22;5844;51.496;6.788;2023-03-31T16:18:34;13.60;99.90
11577;DHT22;5844;51.496;6.788;2023-03-31T16:21:03;13.60;1.00
11577;DHT22;5844;51.496;6.788;2023-03-31T16:23:32;13.40;1.00
11577;DHT22;5844;51.496;6.788;2023-03-31T16:26:00;13.30;1.00
11577;DHT22;5844;51.496;6.788;2023-03-31T16:28:30;13.20;1.00
11577;DHT22;5844;51.496;6.788;2023-03-31T16:30:57;13.00;1.00
11577;DHT22;5844;51.496;6.788;2023-03-31T16:33:30;12.70;1.00
11577;DHT22;5844;51.496;6.788;2023-03-31T16:35:56;12.50;99.90
11577;DHT22;5844;51.496;6.788;2023-03-31T16:38:27;12.30;1.00
11577;DHT22;5844;51.496;6.788;2023-03-31T16:40:55;12.10;1.00
11577;DHT22;5844;51.496;6.788;2023-03-31T16:43:26;11.90;1.00
11577;DHT22;5844;51.496;6.788;2023-03-31T16:45:54;12.00;86.00
11577;DHT22;5844;51.496;6.788;2023-03-31T16:48:22;11.90;99.90
11577;DHT22;5844;51.496;6.788;2023-03-31T16:50:50;11.90;99.90
11577;DHT22;5844;51.496;6.788;2023-03-31T16:53:29;12.00;99.90
11577;DHT22;5844;51.496;6.788;2023-03-31T16:55:55;11.90;99.90
11577;DHT22;5844;51.496;6.788;2023-03-31T16:58:22;11.90;99.90
11577;DHT22;5844;51.496;6.788;2023-03-31T17:00:53;11.90;99.90
11577;DHT22;5844;51.496;6.788;2023-03-31T17:03:19;11.80;99.90
11577;DHT22;5844;51.496;6.788;2023-03-31T17:05:48;11.70;99.90
11577;DHT22;5844;51.496;6.788;2023-03-31T17:08:16;11.60;99.90
11577;DHT22;5844;51.496;6.788;2023-03-31T17:10:58;11.60;99.90
11577;DHT22;5844;51.496;6.788;2023-03-31T17:13:24;11.60;99.90
11577;DHT22;5844;51.496;6.788;2023-03-31T17:15:51;11.60;99.90
11577;DHT22;5844;51.496;6.788;2023-03-31T17:18:18;11.50;99.90
11577;DHT22;5844;51.496;6.788;2023-03-31T17:20:44;11.50;99.90
11577;DHT22;5844;51.496;6.788;2023-03-31T17:23:09;11.50;99.90
11577;DHT22;5844;51.496;6.788;2023-03-31T17:25:35;11.40;99.90
11577;DHT22;5844;51.496;6.788;2023-03-31T17:28:02;11.40;99.90
11577;DHT22;5844;51.496;6.788;2023-03-31T17:30:29;11.40;99.90
11577;DHT22;5844;51.496;6.788;2023-03-31T17:32:55;11.30;99.90
11577;DHT22;5844;51.496;6.788;2023-03-31T17:35:21;11.20;99.90
11577;DHT22;5844;51.496;6.788;2023-03-31T17:37:48;11.10;99.90
11577;DHT22;5844;51.496;6.788;2023-03-31T17:40:23;11.10;99.90
11577;DHT22;5844;51.496;6.788;2023-03-31T17:42:50;11.10;99.90
11577;DHT22;5844;51.496;6.788;2023-03-31T17:45:16;11.00;99.90
11577;DHT22;5844;51.496;6.788;2023-03-31T17:47:42;11.10;99.90
11577;DHT22;5844;51.496;6.788;2023-03-31T17:50:10;11.10;99.90
11577;DHT22;5844;51.496;6.788;2023-03-31T17:52:35;11.00;99.90
11577;DHT22;5844;51.496;6.788;2023-03-31T17:55:02;11.00;99.90
11577;DHT22;5844;51.496;6.788;2023-03-31T17:57:29;10.90;99.90
11577;DHT22;5844;51.496;6.788;2023-03-31T17:59:55;10.90;99.90
11577;DHT22;5844;51.496;6.788;2023-03-31T18:02:21;11.00;99.90
11577;DHT22;5844;51.496;6.788;2023-03-31T18:04:47;11.00;99.90
11577;DHT22;5844;51.496;6.788;2023-03-31T18:07:13;11.00;99.90
11577;DHT22;5844;51.496;6.788;2023-03-31T18:09:39;11.00;99.90
11577;DHT22;5844;51.496;6.788;2023-03-31T18:12:04;11.00;99.90
11577;DHT22;5844;51.496;6.788;2023-03-31T18:14:30;11.00;99.90
11577;DHT22;5844;51.496;6.788;2023-03-31T18:16:57;11.10;99.90
11577;DHT22;5844;51.496;6.788;2023-03-31T18:19:23;11.10;99.90
11577;DHT22;5844;51.496;6.788;2023-03-31T18:21:48;11.10;99.90
11577;DHT22;5844;51.496;6.788;2023-03-31T18:24:14;11.10;99.90
11577;DHT22;5844;51.496;6.788;2023-03-31T18:26:41;11.10;99.90
11577;DHT22;5844;51.496;6.788;2023-03-31T18:29:06;11.10;99.90
11577;DHT22;5844;51.496;6.788;2023-03-31T18:31:32;11.10;99.90
11577;DHT22;5844;51.496;6.788;2023-03-31T18:33:58;11.20;99.90
11577;DHT22;5844;51.496;6.788;2023-03-31T18:36:25;11.10;99.90
11577;DHT22;5844;51.496;6.788;2023-03-31T18:38:51;11.20;99.90
11577;DHT22;5844;51.496;6.788;2023-03-31T18:41:18;11.20;99.90
11577;DHT22;5844;51.496;6.788;2023-03-31T18:43:44;11.10;99.90
11577;DHT22;5844;51.496;6.788;2023-03-31T18:46:12;11.10;99.90
11577;DHT22;5844;51.496;6.788;2023-03-31T18:48:38;11.10;99.90
11577;DHT22;5844;51.496;6.788;2023-03-31T18:51:04;11.00;99.90
11577;DHT22;5844;51.496;6.788;2023-03-31T18:53:30;11.00;99.90
11577;DHT22;5844;51.496;6.788;2023-03-31T18:55:57;11.10;99.90
11577;DHT22;5844;51.496;6.788;2023-03-31T18:58:25;11.10;99.90